Fort Worth, TX

7:12 PM CDT on July 05, 2015 (GMT -0500)
HADS | | Change Station
CLOSE
Current Station
Personal Weather Station
Location: Fort Worth, TX
Elevation: 520 ft
Nearby Weather Stations

Elev 520 ft 32.76 °N, 97.33 °W | Updated 57 minutes ago

Partly Cloudy
Partly Cloudy
92 °F
Feels Like 95 °F
N
10
Wind Variable Wind from South
Gusts 0.0 mph

Today
High -- | Low -- °F
--% Chance of Precip.
Yesterday
High -- | Low -- °F
Precip. -- in
6:26 AM 8:40 PM
Waning Gibbous, 81% visible
Pressure 29.87 in
Visibility 10.0 miles
Clouds Clear
Heat Index 95 °F
Dew Point 66 °F
Humidity 43%
Rainfall in
Snow Depth Not available.
UV 2 out of 12
Pollen 4.20 out of 12
Air Quality Not available.
Flu Activity Not available.
METAR KFTW 052353Z 17015G23KT 10SM CLR 33/20 A2990 RMK AO2 SLP115 T03280200 10344 20328 56018

More Conditions Fewer Conditions

Pressure 29.87 in
Visibility 10.0 miles
Clouds Clear
Heat Index 95 °F
Dew Point 66 °F
Humidity 43%
Rainfall in
Snow Depth Not available.
UV 2 out of 12
Pollen 4.20 out of 12
Air Quality Not available.
Flu Activity Not available.
METAR KFTW 052353Z 17015G23KT 10SM CLR 33/20 A2990 RMK AO2 SLP115 T03280200 10344 20328 56018

More Conditions Fewer Conditions

10-Day Weather Forecast

×

Almanac

Astronomy

Jul. 05, 2015 Rise Set
Actual Time
Civil Twilight
Nautical Twilight
Astronomical Twilight
Moon
Length of Visible Light
Length of Day
Tomorrow will be .
, % of the Moon is Illuminated

Today's Extremes

State Highs State Lows

Community

WunderPhotos

Upload Photos

1,835,430 photos uploaded!

WunderBlogs® & News

Nearby

Air Quality

  Air Quality AQ Index Pollutant
Not available.

Snow Depth

Station Depth Elevation

Earthquake Activity

City Distance Mag. Time & Date
Minimum magnitude displayed is 2.5.

Coastal Water Temperatures

Place Temperature

Stations

Nearby Weather Stations

Station Location Temp. Windchill Dew Point Humidity Wind Precip. Elev Updated Type